Time;durP1;ratioP1;P1;durP2;ratioP2;P2;SDS_P1;SDS_P2;PMS_P1;PMS_P2;Temp;Humidity;BMP_temperature;BMP_pressure;BME280_temperature;BME280_humidity;BME280_pressure;Samples;Min_cycle;Max_cycle;Signal;HPM_P1;HPM_P2
2023/08/28 00:00:27;;;;;;;12.47;8.73;;;13.60;99.90;;;;;;5095026;28;20220;-75
2023/08/28 00:02:54;;;;;;;12.60;8.87;;;13.60;99.90;;;;;;5094863;28;20193;-74
2023/08/28 00:05:22;;;;;;;10.97;9.80;;;13.70;99.90;;;;;;5094967;28;20226;-75
2023/08/28 00:07:50;;;;;;;14.03;9.40;;;13.60;99.90;;;;;;5094920;28;20201;-75
2023/08/28 00:10:17;;;;;;;9.17;8.23;;;13.60;99.90;;;;;;5094899;28;20233;-74
2023/08/28 00:12:44;;;;;;;10.53;8.83;;;13.60;99.90;;;;;;5094748;28;20203;-75
2023/08/28 00:15:11;;;;;;;11.20;9.17;;;13.60;99.90;;;;;;5094681;28;20219;-75
2023/08/28 00:17:38;;;;;;;10.03;8.63;;;13.60;99.90;;;;;;5094633;28;20193;-75
2023/08/28 00:20:07;;;;;;;10.17;8.50;;;13.60;99.90;;;;;;5094743;28;20277;-75
2023/08/28 00:22:36;;;;;;;10.27;9.03;;;13.60;99.90;;;;;;5094671;28;20196;-75
2023/08/28 00:25:02;;;;;;;9.60;8.27;;;13.60;99.90;;;;;;5094566;28;20232;-74
2023/08/28 00:27:30;;;;;;;8.40;7.60;;;13.60;99.90;;;;;;5094508;28;20208;-75
2023/08/28 00:29:57;;;;;;;9.03;8.13;;;13.60;99.90;;;;;;5094320;28;20275;-74
2023/08/28 00:32:24;;;;;;;8.13;7.33;;;13.50;99.90;;;;;;5094566;28;20196;-74
2023/08/28 00:34:50;;;;;;;9.67;8.53;;;13.60;99.90;;;;;;5094462;28;20226;-74
2023/08/28 00:37:17;;;;;;;11.17;8.13;;;13.60;99.90;;;;;;5094281;28;20246;-75
2023/08/28 00:39:45;;;;;;;10.73;8.53;;;13.50;99.90;;;;;;5094160;28;20224;-74
2023/08/28 00:42:13;;;;;;;9.30;8.40;;;13.40;99.90;;;;;;5094173;28;20196;-74
2023/08/28 00:44:39;;;;;;;9.00;8.10;;;13.30;99.90;;;;;;5094321;28;20261;-74
2023/08/28 00:47:07;;;;;;;10.67;8.47;;;13.40;99.90;;;;;;5094205;28;20205;-75
2023/08/28 00:49:35;;;;;;;9.93;9.00;;;13.30;99.90;;;;;;5094106;28;20253;-75
2023/08/28 00:52:02;;;;;;;9.90;8.63;;;13.40;99.90;;;;;;5093954;28;20652;-74
2023/08/28 00:54:29;;;;;;;11.77;9.30;;;13.30;99.90;;;;;;5093834;28;20211;-74
2023/08/28 00:56:58;;;;;;;13.07;9.17;;;13.30;99.90;;;;;;5093851;28;20207;-74
2023/08/28 00:59:27;;;;;;;9.77;8.80;;;13.30;99.90;;;;;;5093512;28;20289;-74
2023/08/28 01:01:53;;;;;;;11.17;9.00;;;13.30;99.90;;;;;;5093641;28;20697;-74
2023/08/28 01:04:20;;;;;;;10.67;9.20;;;13.30;99.90;;;;;;5093537;28;20200;-74
2023/08/28 01:06:52;;;;;;;10.53;9.43;;;13.30;99.90;;;;;;5093343;28;20196;-74
2023/08/28 01:09:29;;;;;;;10.40;9.40;;;13.30;99.90;;;;;;5093481;28;20241;-74
2023/08/28 01:12:10;;;;;;;10.47;9.10;;;13.30;99.90;;;;;;5093831;28;20191;-74
2023/08/28 01:14:45;;;;;;;11.40;9.43;;;13.30;99.90;;;;;;5093749;28;20204;-74
2023/08/28 01:17:14;;;;;;;11.43;9.60;;;13.40;99.90;;;;;;5093662;28;20253;-74
2023/08/28 01:19:44;;;;;;;15.53;9.97;;;13.30;99.90;;;;;;5093348;28;20220;-74
2023/08/28 01:22:19;;;;;;;13.03;9.60;;;13.30;99.90;;;;;;5093284;28;20203;-74
2023/08/28 01:24:51;;;;;;;13.23;10.27;;;13.40;99.90;;;;;;5093562;28;20237;-74
2023/08/28 01:27:21;;;;;;;12.53;9.50;;;13.30;99.90;;;;;;5093456;28;20196;-74
2023/08/28 01:30:07;;;;;;;15.53;8.87;;;13.40;99.90;;;;;;5093663;28;20196;-73
2023/08/28 01:32:34;;;;;;;12.40;9.27;;;13.30;99.90;;;;;;5093201;28;20714;-74
2023/08/28 01:35:02;;;;;;;10.67;9.60;;;13.30;99.90;;;;;;5093314;28;20196;-74
2023/08/28 01:37:38;;;;;;;10.63;9.37;;;13.30;99.90;;;;;;5093277;28;20283;-74
2023/08/28 01:40:06;;;;;;;12.93;10.33;;;13.30;99.90;;;;;;5093097;28;20277;-73
2023/08/28 01:42:34;;;;;;;12.77;9.87;;;13.30;99.90;;;;;;5093125;28;20208;-73
2023/08/28 01:45:03;;;;;;;11.07;9.90;;;13.30;99.90;;;;;;5092963;28;20699;-73
2023/08/28 01:47:29;;;;;;;11.07;9.63;;;13.20;99.90;;;;;;5092457;28;20734;-74
2023/08/28 01:49:58;;;;;;;11.37;10.23;;;13.20;99.90;;;;;;5093110;28;20249;-73
2023/08/28 01:52:24;;;;;;;11.87;9.93;;;13.20;99.90;;;;;;5092973;28;20192;-73
2023/08/28 01:54:51;;;;;;;11.73;10.17;;;13.20;99.90;;;;;;5092874;28;20191;-74
2023/08/28 01:57:18;;;;;;;10.87;9.77;;;13.20;99.90;;;;;;5092773;28;20261;-73
2023/08/28 01:59:46;;;;;;;10.37;9.37;;;13.10;99.90;;;;;;5092560;28;20228;-74
2023/08/28 02:02:12;;;;;;;11.17;10.07;;;13.10;99.90;;;;;;5093006;28;20197;-74
2023/08/28 02:04:39;;;;;;;11.13;10.13;;;13.10;99.90;;;;;;5092783;28;20599;-73
2023/08/28 02:07:05;;;;;;;14.43;9.40;;;13.10;99.90;;;;;;5092859;28;20253;-73
2023/08/28 02:09:32;;;;;;;11.43;10.33;;;13.20;99.90;;;;;;5092739;28;20272;-74
2023/08/28 02:11:59;;;;;;;13.73;11.00;;;13.20;99.90;;;;;;5092607;28;20196;-73
2023/08/28 02:14:26;;;;;;;15.63;10.80;;;13.20;99.90;;;;;;5092866;28;20249;-74
2023/08/28 02:16:54;;;;;;;11.57;10.30;;;13.10;99.90;;;;;;5092827;28;20487;-73
2023/08/28 02:19:20;;;;;;;12.30;10.83;;;13.10;99.90;;;;;;5092692;28;20196;-73
2023/08/28 02:21:47;;;;;;;13.37;10.87;;;13.10;99.90;;;;;;5092636;28;20280;-73
2023/08/28 02:24:13;;;;;;;11.40;10.10;;;13.10;99.90;;;;;;5092494;28;20203;-73
2023/08/28 02:26:40;;;;;;;13.23;11.23;;;13.20;99.90;;;;;;5092461;28;20196;-73
2023/08/28 02:29:07;;;;;;;11.23;10.03;;;13.10;99.90;;;;;;5092755;28;20200;-73
2023/08/28 02:31:33;;;;;;;16.70;10.23;;;13.10;99.90;;;;;;5092623;28;20261;-73
2023/08/28 02:34:01;;;;;;;14.57;11.00;;;13.10;99.90;;;;;;5092567;28;20264;-73
2023/08/28 02:36:28;;;;;;;12.17;10.87;;;13.10;99.90;;;;;;5092343;28;20656;-73
2023/08/28 02:38:55;;;;;;;12.53;11.27;;;13.10;99.90;;;;;;5092387;28;20249;-73
2023/08/28 02:41:21;;;;;;;14.23;10.23;;;13.10;99.90;;;;;;5092295;28;20329;-73
2023/08/28 02:43:48;;;;;;;11.73;10.33;;;13.10;99.90;;;;;;5092271;28;20200;-73
2023/08/28 02:46:14;;;;;;;12.90;11.43;;;13.20;99.90;;;;;;5092509;28;20197;-73
2023/08/28 02:48:41;;;;;;;13.60;11.90;;;13.20;99.90;;;;;;5092480;28;20196;-74
2023/08/28 02:51:09;;;;;;;14.50;11.63;;;13.20;99.90;;;;;;5092304;28;20197;-73
2023/08/28 02:53:36;;;;;;;16.33;12.00;;;13.20;99.90;;;;;;5092240;28;20606;-73
2023/08/28 02:56:26;;;;;;;13.83;11.57;;;13.20;99.90;;;;;;5092634;28;20253;-73
2023/08/28 02:58:53;;;;;;;14.63;11.73;;;13.20;99.90;;;;;;5093948;28;20228;-73
2023/08/28 03:01:20;;;;;;;14.53;12.37;;;13.20;99.90;;;;;;5096004;28;20557;-73
2023/08/28 03:03:47;;;;;;;13.10;11.73;;;13.20;99.90;;;;;;5096107;28;20257;-74
2023/08/28 03:06:15;;;;;;;13.90;12.20;;;13.10;99.90;;;;;;5095964;28;20192;-73
2023/08/28 03:08:42;;;;;;;17.10;12.77;;;13.10;99.90;;;;;;5095908;28;20720;-73
2023/08/28 03:11:09;;;;;;;14.57;12.87;;;13.10;99.90;;;;;;5096072;28;20193;-73
2023/08/28 03:13:35;;;;;;;17.47;12.67;;;13.00;99.90;;;;;;5095915;28;20246;-73
2023/08/28 03:16:02;;;;;;;13.63;12.23;;;13.00;99.90;;;;;;5095833;28;20574;-73
2023/08/28 03:18:29;;;;;;;15.63;13.87;;;13.00;99.90;;;;;;5095782;28;20196;-72
2023/08/28 03:20:55;;;;;;;15.97;13.63;;;13.00;99.90;;;;;;5095605;28;20305;-73
2023/08/28 03:23:23;;;;;;;15.17;13.53;;;13.00;99.90;;;;;;5095656;28;20196;-73
2023/08/28 03:25:50;;;;;;;15.03;13.47;;;13.00;99.90;;;;;;5095737;28;20249;-73
2023/08/28 03:28:17;;;;;;;16.93;13.23;;;13.00;99.90;;;;;;5095530;28;20203;-73
2023/08/28 03:30:44;;;;;;;18.87;14.00;;;12.90;99.90;;;;;;5095565;28;20801;-73
2023/08/28 03:33:10;;;;;;;15.07;13.57;;;12.90;99.90;;;;;;5095480;28;20200;-73
2023/08/28 03:35:36;;;;;;;16.37;13.33;;;12.90;99.90;;;;;;5095687;28;20196;-73
2023/08/28 03:38:03;;;;;;;16.07;13.80;;;12.90;99.90;;;;;;5095645;28;20541;-73
2023/08/28 03:40:31;;;;;;;15.07;13.47;;;12.90;99.90;;;;;;5095484;28;20269;-73
2023/08/28 03:42:57;;;;;;;19.33;13.73;;;12.90;99.90;;;;;;5095506;28;20230;-72
2023/08/28 03:45:24;;;;;;;14.90;13.33;;;12.90;99.90;;;;;;5095297;28;20192;-73
2023/08/28 03:47:50;;;;;;;17.13;13.37;;;12.90;99.90;;;;;;5095293;28;20283;-72
2023/08/28 03:50:17;;;;;;;17.93;13.27;;;12.90;99.90;;;;;;5095416;28;20204;-73
2023/08/28 03:52:44;;;;;;;18.93;14.23;;;12.90;99.90;;;;;;5095319;28;20266;-73
2023/08/28 03:55:10;;;;;;;18.20;14.77;;;12.90;99.90;;;;;;5095157;28;20254;-73
2023/08/28 03:57:39;;;;;;;17.27;14.77;;;12.90;99.90;;;;;;5095053;28;20201;-73
2023/08/28 04:00:11;;;;;;;17.40;14.43;;;12.90;99.90;;;;;;5094423;28;20715;-73
2023/08/28 04:02:38;;;;;;;16.93;13.73;;;12.90;99.90;;;;;;5094837;28;20196;-73
2023/08/28 04:05:06;;;;;;;15.50;13.80;;;12.90;99.90;;;;;;5094737;28;20259;-74
2023/08/28 04:07:33;;;;;;;16.60;13.77;;;12.90;99.90;;;;;;5094981;28;20207;-74
2023/08/28 04:10:00;;;;;;;17.17;14.77;;;12.90;99.90;;;;;;5094429;28;20204;-74
2023/08/28 04:12:27;;;;;;;17.53;13.90;;;12.90;99.90;;;;;;5094952;28;20258;-74
2023/08/28 04:14:55;;;;;;;16.57;13.80;;;12.90;99.90;;;;;;5094733;28;20204;-74
2023/08/28 04:17:21;;;;;;;15.40;13.80;;;12.90;99.90;;;;;;5094846;28;20200;-74
2023/08/28 04:19:51;;;;;;;13.87;12.47;;;12.90;99.90;;;;;;5094638;28;20196;-74
2023/08/28 04:22:18;;;;;;;16.43;13.00;;;12.90;99.90;;;;;;5094564;28;20231;-74
2023/08/28 04:24:46;;;;;;;16.70;12.63;;;12.90;99.90;;;;;;5094560;28;20628;-73
2023/08/28 04:27:13;;;;;;;15.07;12.73;;;12.90;99.90;;;;;;5094237;28;20192;-74
2023/08/28 04:29:39;;;;;;;17.10;12.80;;;12.90;99.90;;;;;;5094611;28;20310;-74
2023/08/28 04:32:08;;;;;;;15.67;12.03;;;12.90;99.90;;;;;;5094409;28;20250;-74
2023/08/28 04:34:34;;;;;;;13.27;11.87;;;12.90;99.90;;;;;;5094422;28;20254;-74
2023/08/28 04:37:01;;;;;;;14.67;13.17;;;12.80;99.90;;;;;;5094148;28;20674;-74
2023/08/28 04:39:28;;;;;;;15.73;12.97;;;12.80;99.90;;;;;;5094150;28;20709;-74
2023/08/28 04:41:55;;;;;;;15.43;13.70;;;12.80;99.90;;;;;;5094112;28;20273;-73
2023/08/28 04:44:22;;;;;;;15.17;13.17;;;12.80;99.90;;;;;;5094485;28;20226;-73
2023/08/28 04:46:48;;;;;;;15.67;12.70;;;12.90;99.90;;;;;;5094590;28;20273;-74
2023/08/28 04:49:16;;;;;;;14.17;12.33;;;12.80;99.90;;;;;;5094472;28;20203;-74
2023/08/28 04:51:43;;;;;;;14.07;12.40;;;12.80;99.90;;;;;;5094062;28;20545;-74
2023/08/28 04:54:10;;;;;;;13.27;11.93;;;12.80;99.90;;;;;;5094185;28;20560;-73
2023/08/28 04:56:36;;;;;;;17.93;12.53;;;12.80;99.90;;;;;;5094190;28;20558;-74
2023/08/28 04:59:03;;;;;;;15.47;13.37;;;12.80;99.90;;;;;;5093548;28;20292;-74
2023/08/28 05:01:30;;;;;;;13.37;11.83;;;12.90;99.90;;;;;;5094093;28;20228;-74
2023/08/28 05:03:57;;;;;;;14.43;12.83;;;13.00;99.90;;;;;;5093748;28;20211;-74
2023/08/28 05:06:25;;;;;;;14.73;11.60;;;13.10;99.90;;;;;;5093680;28;20219;-73
2023/08/28 05:08:51;;;;;;;17.13;12.07;;;13.00;99.90;;;;;;5093584;28;20192;-74
2023/08/28 05:11:18;;;;;;;13.47;12.07;;;13.00;99.90;;;;;;5093543;28;20254;-73
2023/08/28 05:13:45;;;;;;;13.13;11.50;;;13.00;99.90;;;;;;5093672;28;20223;-74
2023/08/28 05:16:12;;;;;;;14.23;11.97;;;13.10;99.90;;;;;;5093425;28;20196;-74
2023/08/28 05:18:39;;;;;;;15.33;11.93;;;13.10;99.90;;;;;;5093495;28;20227;-73
2023/08/28 05:21:05;;;;;;;15.50;11.77;;;13.10;99.90;;;;;;5092490;28;20356;-74
2023/08/28 05:23:33;;;;;;;14.97;12.10;;;13.10;99.90;;;;;;5093199;28;20643;-73
2023/08/28 05:26:00;;;;;;;12.93;11.63;;;13.10;99.90;;;;;;5093106;28;20197;-73
2023/08/28 05:28:26;;;;;;;12.47;11.20;;;13.10;99.90;;;;;;5093181;28;20601;-74
2023/08/28 05:30:53;;;;;;;14.70;12.00;;;13.20;99.90;;;;;;5093271;28;20200;-73
2023/08/28 05:33:20;;;;;;;12.37;11.07;;;13.10;99.90;;;;;;5093083;28;20192;-73
2023/08/28 05:35:47;;;;;;;14.27;11.00;;;13.10;99.90;;;;;;5093107;28;20196;-74
2023/08/28 05:38:13;;;;;;;13.37;11.10;;;13.20;99.90;;;;;;5092858;28;20258;-73
2023/08/28 05:40:41;;;;;;;11.97;10.70;;;13.20;99.90;;;;;;5093116;28;20192;-73
2023/08/28 05:43:08;;;;;;;13.70;10.43;;;13.30;99.90;;;;;;5093084;28;20196;-73
2023/08/28 05:45:35;;;;;;;12.13;10.97;;;13.30;99.90;;;;;;5093032;28;20207;-73
2023/08/28 05:48:02;;;;;;;11.97;10.73;;;13.40;99.90;;;;;;5092809;28;20663;-73
2023/08/28 05:50:28;;;;;;;12.80;11.03;;;13.40;99.90;;;;;;5092976;28;20197;-74
2023/08/28 05:52:55;;;;;;;10.80;9.80;;;13.40;99.90;;;;;;5092786;28;20594;-73
2023/08/28 05:55:21;;;;;;;10.40;9.23;;;13.40;99.90;;;;;;5092912;28;20269;-74
2023/08/28 05:57:49;;;;;;;10.37;9.37;;;13.40;99.90;;;;;;5092449;28;20652;-72
2023/08/28 06:00:17;;;;;;;10.50;9.47;;;13.40;99.90;;;;;;5092797;28;20245;-72
2023/08/28 06:02:43;;;;;;;12.20;8.57;;;13.40;99.90;;;;;;5092325;28;20767;-74
2023/08/28 06:05:10;;;;;;;11.30;9.30;;;13.50;99.90;;;;;;5092673;28;20245;-73
2023/08/28 06:07:37;;;;;;;10.67;8.93;;;13.40;99.90;;;;;;5092851;28;20219;-73
2023/08/28 06:10:05;;;;;;;10.63;9.63;;;13.50;99.90;;;;;;5092862;28;20196;-74
2023/08/28 06:12:31;;;;;;;9.07;8.27;;;13.50;99.90;;;;;;5092746;28;20200;-74
2023/08/28 06:14:59;;;;;;;8.90;8.00;;;13.60;99.90;;;;;;5092573;28;20277;-74
2023/08/28 06:17:27;;;;;;;12.50;9.10;;;13.60;99.90;;;;;;5092629;28;20249;-73
2023/08/28 06:19:54;;;;;;;9.33;8.40;;;13.60;99.90;;;;;;5092463;28;20234;-73
2023/08/28 06:22:20;;;;;;;9.23;8.33;;;13.60;99.90;;;;;;5092280;28;20760;-74
2023/08/28 06:24:52;;;;;;;9.73;8.00;;;13.70;99.90;;;;;;5092442;28;20638;-73
2023/08/28 06:27:19;;;;;;;8.57;7.73;;;13.70;99.90;;;;;;5092687;28;20196;-75
2023/08/28 06:29:45;;;;;;;8.70;7.47;;;13.80;99.90;;;;;;5092851;28;20196;-79
2023/08/28 06:32:13;;;;;;;8.53;7.70;;;13.80;99.90;;;;;;5093455;28;20258;-76
2023/08/28 06:34:40;;;;;;;8.87;7.97;;;13.80;99.90;;;;;;5096493;28;20231;-76
2023/08/28 06:37:06;;;;;;;8.33;7.53;;;13.70;99.90;;;;;;5096303;28;20197;-75
2023/08/28 06:39:33;;;;;;;8.43;7.53;;;13.80;99.90;;;;;;5096678;28;20253;-75
2023/08/28 06:41:59;;;;;;;8.20;7.37;;;13.90;99.90;;;;;;5096348;28;20695;-74
2023/08/28 06:44:27;;;;;;;8.57;7.77;;;14.00;99.90;;;;;;5096532;28;20192;-75
2023/08/28 06:46:53;;;;;;;8.10;6.73;;;14.10;99.90;;;;;;5096274;28;20338;-75
2023/08/28 06:49:21;;;;;;;7.93;7.10;;;14.30;99.90;;;;;;5096582;28;20269;-77
2023/08/28 06:51:48;;;;;;;7.93;7.20;;;14.30;99.90;;;;;;5096186;28;20540;-76
2023/08/28 06:54:15;;;;;;;7.83;6.90;;;14.40;99.90;;;;;;5096385;28;20201;-76
2023/08/28 06:56:41;;;;;;;9.60;7.20;;;14.50;99.90;;;;;;5096288;28;20200;-76
2023/08/28 06:59:08;;;;;;;8.23;7.43;;;14.50;99.90;;;;;;5096006;28;20622;-76
2023/08/28 07:01:35;;;;;;;10.37;7.70;;;14.60;99.90;;;;;;5095967;28;20732;-75
2023/08/28 07:04:03;;;;;;;9.07;6.83;;;14.70;99.90;;;;;;5096194;28;20231;-76
2023/08/28 07:06:31;;;;;;;8.47;7.67;;;14.90;99.90;;;;;;5096336;28;20196;-76
2023/08/28 07:08:59;;;;;;;7.10;6.50;;;15.00;99.90;;;;;;5096285;28;20266;-75
2023/08/28 07:11:26;;;;;;;12.33;6.60;;;15.00;99.90;;;;;;5095982;28;20208;-75
2023/08/28 07:13:54;;;;;;;7.15;6.45;;;15.10;99.90;;;;;;5096054;28;20321;-76
2023/08/28 07:16:21;;;;;;;7.57;6.03;;;15.10;99.90;;;;;;5095822;28;20196;-75
2023/08/28 07:18:48;;;;;;;7.30;6.43;;;15.00;99.90;;;;;;5095926;28;20241;-74
2023/08/28 07:21:15;;;;;;;7.35;6.60;;;14.90;99.90;;;;;;5095545;28;20200;-75
2023/08/28 07:23:43;;;;;;;7.05;6.45;;;14.90;99.90;;;;;;5095676;28;20558;-75
2023/08/28 07:26:10;;;;;;;7.10;6.40;;;14.80;99.90;;;;;;5095475;28;20648;-75
2023/08/28 07:28:35;;;;;;;6.93;6.33;;;14.80;99.90;;;;;;5095431;28;20651;-75
2023/08/28 07:31:03;;;;;;;8.20;6.93;;;14.90;99.90;;;;;;5095775;28;20253;-75
2023/08/28 07:33:30;;;;;;;8.57;7.00;;;14.90;99.90;;;;;;5095737;28;20203;-75
2023/08/28 07:35:57;;;;;;;7.53;6.83;;;14.70;99.90;;;;;;5095559;28;20196;-75
2023/08/28 07:38:23;;;;;;;7.35;6.70;;;14.60;99.90;;;;;;5095440;28;20204;-75
2023/08/28 07:40:51;;;;;;;7.13;6.10;;;14.50;99.90;;;;;;5095411;28;20249;-75
2023/08/28 07:43:18;;;;;;;7.50;6.80;;;14.50;99.90;;;;;;5094939;28;20224;-75
2023/08/28 07:45:45;;;;;;;6.93;6.33;;;14.40;99.90;;;;;;5094711;28;20204;-74
2023/08/28 07:48:12;;;;;;;7.70;6.40;;;14.40;99.90;;;;;;5095180;28;20761;-75
2023/08/28 07:50:39;;;;;;;8.03;7.27;;;14.40;99.90;;;;;;5095134;28;20257;-74
2023/08/28 07:53:06;;;;;;;7.87;7.10;;;14.30;99.90;;;;;;5095255;28;20204;-74
2023/08/28 07:55:33;;;;;;;8.50;7.10;;;14.30;99.90;;;;;;5095064;28;20196;-75
2023/08/28 07:58:01;;;;;;;7.83;7.10;;;14.30;99.90;;;;;;5094757;28;20728;-75
2023/08/28 08:00:27;;;;;;;8.13;7.33;;;14.30;99.90;;;;;;5095205;28;20208;-75
2023/08/28 08:02:55;;;;;;;7.20;6.50;;;14.30;99.90;;;;;;5094501;28;20764;-75
2023/08/28 08:05:21;;;;;;;7.80;7.00;;;14.30;99.90;;;;;;5094949;28;20211;-76
2023/08/28 08:07:49;;;;;;;7.27;6.67;;;14.40;99.90;;;;;;5095072;28;20713;-75
2023/08/28 08:10:15;;;;;;;7.90;7.13;;;14.40;99.90;;;;;;5094771;28;20656;-75
2023/08/28 08:12:42;;;;;;;7.23;6.63;;;14.40;99.90;;;;;;5094831;28;20660;-75
2023/08/28 08:15:11;;;;;;;7.53;6.73;;;14.40;99.90;;;;;;5094646;28;20644;-76
2023/08/28 08:17:38;;;;;;;7.60;6.83;;;14.50;99.90;;;;;;5094549;28;20196;-75
2023/08/28 08:20:09;;;;;;;7.00;6.40;;;14.50;99.90;;;;;;5094633;28;20717;-75
2023/08/28 08:22:36;;;;;;;7.70;6.97;;;14.50;99.90;;;;;;5094714;28;20224;-76
2023/08/28 08:25:04;;;;;;;7.07;6.37;;;14.60;99.90;;;;;;5094662;28;20257;-76
2023/08/28 08:27:31;;;;;;;7.43;6.50;;;14.70;99.90;;;;;;5093958;28;20192;-74
2023/08/28 08:29:57;;;;;;;10.10;6.87;;;14.60;99.90;;;;;;5094633;28;20192;-75
2023/08/28 08:32:25;;;;;;;7.33;6.70;;;14.60;99.90;;;;;;5094363;28;20652;-73
2023/08/28 08:34:52;;;;;;;7.37;6.53;;;14.70;99.90;;;;;;5094370;28;20197;-76
2023/08/28 08:37:18;;;;;;;7.40;6.80;;;14.80;99.90;;;;;;5094406;28;20204;-74
2023/08/28 08:39:45;;;;;;;8.07;7.27;;;14.70;99.90;;;;;;5094186;28;20200;-73
2023/08/28 08:42:12;;;;;;;7.70;7.00;;;14.70;99.90;;;;;;5094206;28;20602;-73
2023/08/28 08:44:39;;;;;;;8.13;6.70;;;14.70;99.90;;;;;;5094371;28;20196;-74
2023/08/28 08:47:06;;;;;;;8.27;7.50;;;14.70;99.90;;;;;;5094044;28;20624;-74
2023/08/28 08:49:35;;;;;;;7.67;6.97;;;14.80;99.90;;;;;;5094066;28;20196;-73
2023/08/28 08:52:06;;;;;;;7.60;6.90;;;14.90;99.90;;;;;;5089751;28;20200;-74
2023/08/28 08:54:37;;;;;;;8.02;7.32;;;14.90;99.90;;;;;;5080206;28;20304;-75
2023/08/28 08:57:09;;;;;;;7.83;7.13;;;15.00;99.90;;;;;;5079193;28;20207;-74
2023/08/28 08:59:36;;;;;;;7.80;7.20;;;15.10;99.90;;;;;;5073616;28;20229;-78
2023/08/28 09:02:04;;;;;;;8.17;7.40;;;15.10;99.90;;;;;;5089883;28;20718;-74
2023/08/28 09:04:34;;;;;;;7.60;6.90;;;15.30;99.90;;;;;;5073086;28;20189;-73
2023/08/28 09:07:04;;;;;;;7.20;6.57;;;15.50;99.90;;;;;;5081821;28;20273;-75
2023/08/28 09:09:31;;;;;;;6.75;6.10;;;15.60;99.90;;;;;;5080967;28;20197;-77
2023/08/28 09:11:58;;;;;;;6.57;6.07;;;15.70;99.90;;;;;;5094218;28;20200;-78
2023/08/28 09:14:26;;;;;;;7.25;6.55;;;15.80;99.90;;;;;;5099704;28;20203;-78
2023/08/28 09:16:53;;;;;;;7.68;6.95;;;15.90;99.90;;;;;;5092797;28;20265;-78
2023/08/28 09:19:20;;;;;;;7.22;6.50;;;15.70;99.90;;;;;;5093978;28;20197;-78
2023/08/28 09:21:50;;;;;;;7.80;6.65;;;15.80;99.90;;;;;;5093726;28;20196;-78
2023/08/28 09:24:22;;;;;;;6.95;6.00;;;15.60;99.90;;;;;;5093883;28;20192;-80
2023/08/28 09:26:52;;;;;;;7.15;6.53;;;15.40;99.90;;;;;;5093996;28;20666;-82
2023/08/28 09:29:22;;;;;;;7.50;6.68;;;15.40;99.90;;;;;;5094211;28;20253;-80
2023/08/28 09:31:49;;;;;;;6.90;6.30;;;15.30;99.90;;;;;;5094527;28;20208;-82
2023/08/28 09:34:15;;;;;;;8.57;7.40;;;15.40;99.90;;;;;;5094670;28;20196;-82
2023/08/28 09:36:42;;;;;;;7.43;6.72;;;15.60;99.90;;;;;;5094497;28;20196;-82
2023/08/28 09:39:11;;;;;;;9.57;6.57;;;15.70;99.90;;;;;;5094260;28;20193;-82
2023/08/28 09:41:43;;;;;;;7.30;6.70;;;15.80;99.90;;;;;;5093584;28;20204;-83
2023/08/28 09:44:09;;;;;;;7.07;6.47;;;15.70;99.90;;;;;;5093189;28;20633;-82
2023/08/28 09:46:36;;;;;;;7.65;6.85;;;15.50;99.90;;;;;;5094217;28;20204;-83
2023/08/28 09:49:03;;;;;;;9.18;7.32;;;15.50;99.90;;;;;;5094264;28;20279;-83
2023/08/28 09:51:40;;;;;;;7.85;7.15;;;15.30;99.90;;;;;;5094187;28;20608;-82
2023/08/28 09:54:06;;;;;;;8.87;6.90;;;15.20;99.90;;;;;;5093923;28;20203;-82
2023/08/28 09:56:34;;;;;;;8.30;7.60;;;15.20;99.90;;;;;;5094080;28;20591;-83
2023/08/28 09:59:01;;;;;;;7.63;6.93;;;15.20;99.90;;;;;;5094175;28;20281;-83
2023/08/28 10:01:31;;;;;;;7.80;7.20;;;15.30;99.90;;;;;;5094185;28;20257;-82
2023/08/28 10:03:58;;;;;;;7.60;6.93;;;15.40;99.90;;;;;;5093926;28;20401;-82
2023/08/28 10:06:26;;;;;;;10.60;7.60;;;15.50;99.90;;;;;;5093542;28;20230;-82
2023/08/28 10:08:55;;;;;;;8.90;7.87;;;15.50;99.90;;;;;;5093615;28;20196;-81
2023/08/28 10:11:22;;;;;;;9.17;7.67;;;15.40;99.90;;;;;;5093064;28;20200;-79
2023/08/28 10:13:53;;;;;;;10.48;8.43;;;15.30;99.90;;;;;;5093179;28;20242;-76
2023/08/28 10:16:23;;;;;;;8.15;7.35;;;15.20;99.90;;;;;;5093120;28;20300;-76
2023/08/28 10:19:04;;;;;;;9.33;8.17;;;15.20;99.90;;;;;;5093201;28;20192;-74
2023/08/28 10:21:32;;;;;;;8.60;7.20;;;15.30;99.90;;;;;;5092742;28;20667;-74
2023/08/28 10:23:59;;;;;;;8.27;7.47;;;15.60;99.90;;;;;;5093029;28;20224;-74
2023/08/28 10:26:27;;;;;;;8.10;7.38;;;15.70;99.90;;;;;;5092889;28;20261;-74
2023/08/28 10:28:56;;;;;;;8.63;7.82;;;15.70;99.90;;;;;;5092739;28;20672;-75
2023/08/28 10:31:23;;;;;;;8.02;7.30;;;15.60;99.90;;;;;;5092987;28;20242;-75
2023/08/28 10:33:52;;;;;;;7.80;7.00;;;15.70;99.90;;;;;;5092313;28;20253;-75
2023/08/28 10:36:21;;;;;;;8.13;7.43;;;15.90;99.90;;;;;;5092763;28;20266;-75
2023/08/28 10:38:50;;;;;;;7.72;7.13;;;15.60;99.90;;;;;;5092945;28;20246;-75
2023/08/28 10:41:17;;;;;;;9.90;7.80;;;15.60;99.90;;;;;;5092703;28;20192;-75
2023/08/28 10:43:45;;;;;;;8.95;8.05;;;15.70;99.90;;;;;;5092471;28;20227;-77
2023/08/28 10:46:13;;;;;;;8.23;7.53;;;15.90;99.90;;;;;;5092535;28;20197;-76
2023/08/28 10:48:39;;;;;;;8.88;8.07;;;15.90;99.90;;;;;;5092588;28;20193;-76
2023/08/28 10:51:11;;;;;;;8.32;7.43;;;15.90;99.90;;;;;;5092585;28;20188;-77
2023/08/28 10:53:38;;;;;;;7.75;7.13;;;15.90;99.90;;;;;;5092671;28;20245;-77
2023/08/28 10:56:06;;;;;;;8.27;7.60;;;16.00;99.90;;;;;;5092765;28;20276;-77
2023/08/28 10:58:37;;;;;;;8.87;8.10;;;15.70;99.90;;;;;;5092356;28;20232;-77
2023/08/28 11:01:16;;;;;;;8.37;7.67;;;15.60;99.90;;;;;;5092455;28;20265;-77
2023/08/28 11:03:56;;;;;;;9.13;8.32;;;15.70;99.90;;;;;;5092693;28;20243;-77
2023/08/28 11:06:42;;;;;;;8.38;7.30;;;16.10;99.90;;;;;;5092338;28;20549;-75
2023/08/28 11:09:34;;;;;;;7.68;7.00;;;16.30;99.90;;;;;;5092553;28;20202;-76
2023/08/28 11:12:29;;;;;;;7.82;7.13;;;16.70;99.90;;;;;;5092642;28;20205;-76
2023/08/28 11:15:00;;;;;;;6.80;6.20;;;16.90;99.90;;;;;;5092408;28;20702;-76
2023/08/28 11:17:31;;;;;;;6.60;6.10;;;16.50;99.90;;;;;;5091966;28;20200;-76
2023/08/28 11:20:06;;;;;;;6.78;6.28;;;16.30;99.90;;;;;;5094415;28;20196;-76
2023/08/28 11:22:34;;;;;;;6.35;5.75;;;16.20;99.90;;;;;;5095964;28;20207;-76
2023/08/28 11:25:04;;;;;;;5.78;5.28;;;16.30;99.90;;;;;;5096071;28;20193;-75
2023/08/28 11:27:35;;;;;;;6.28;5.30;;;16.50;99.90;;;;;;5095690;28;20552;-76
2023/08/28 11:30:05;;;;;;;6.68;5.07;;;16.60;99.90;;;;;;5095611;28;20691;-75
2023/08/28 11:32:34;;;;;;;6.65;4.90;;;16.60;99.90;;;;;;5095839;28;20721;-80
2023/08/28 11:35:04;;;;;;;5.65;4.65;;;16.60;99.90;;;;;;5095382;28;20660;-76
2023/08/28 11:37:32;;;;;;;4.97;4.47;;;16.90;99.90;;;;;;5093572;28;20203;-74
2023/08/28 11:39:59;;;;;;;4.80;4.40;;;16.90;99.90;;;;;;5094423;28;20189;-75
2023/08/28 11:42:26;;;;;;;4.88;4.47;;;16.70;99.90;;;;;;5094871;28;20207;-75
2023/08/28 11:44:53;;;;;;;4.63;4.13;;;16.90;99.90;;;;;;5095123;28;20262;-74
2023/08/28 11:47:26;;;;;;;4.80;4.40;;;16.80;99.90;;;;;;5095367;28;20197;-74
2023/08/28 11:49:54;;;;;;;4.63;4.22;;;16.70;99.90;;;;;;5095178;28;20205;-74
2023/08/28 11:52:21;;;;;;;5.28;4.88;;;16.60;99.90;;;;;;5094922;28;20193;-74
2023/08/28 11:54:48;;;;;;;5.45;4.97;;;16.30;99.90;;;;;;5095062;28;20204;-74
2023/08/28 11:57:16;;;;;;;4.88;4.47;;;16.10;99.90;;;;;;5088996;28;20242;-74
2023/08/28 11:59:44;;;;;;;7.07;4.75;;;16.30;99.90;;;;;;5077652;28;20229;-75
2023/08/28 12:02:13;;;;;;;4.68;4.22;;;16.50;99.90;;;;;;5077159;28;20599;-76
2023/08/28 12:04:40;;;;;;;6.63;4.47;;;16.70;99.90;;;;;;5074446;28;20224;-76
2023/08/28 12:07:16;;;;;;;4.55;4.15;;;16.90;99.90;;;;;;5085979;28;20196;-76
2023/08/28 12:09:45;;;;;;;4.70;4.30;;;17.00;99.90;;;;;;5078547;28;20392;-76
2023/08/28 12:12:12;;;;;;;5.28;4.65;;;17.00;99.90;;;;;;5077459;28;20272;-76
2023/08/28 12:14:43;;;;;;;4.60;4.20;;;16.70;99.90;;;;;;5082059;28;20193;-76
2023/08/28 12:17:13;;;;;;;4.97;4.50;;;16.70;99.90;;;;;;5093513;28;20200;-76
2023/08/28 12:19:40;;;;;;;4.88;4.45;;;16.70;99.90;;;;;;5094900;28;20196;-76
2023/08/28 12:22:07;;;;;;;4.53;4.13;;;16.70;99.90;;;;;;5094834;28;20200;-76
2023/08/28 12:24:39;;;;;;;5.15;4.30;;;16.70;99.90;;;;;;5094789;28;20227;-76
2023/08/28 12:27:06;;;;;;;4.85;4.45;;;16.40;99.90;;;;;;5099503;28;20200;-76
2023/08/28 12:29:34;;;;;;;5.95;4.35;;;16.50;99.90;;;;;;5094971;28;20214;-76
2023/08/28 12:32:05;;;;;;;3.97;3.65;;;16.50;99.90;;;;;;5095279;28;20207;-74
2023/08/28 12:34:33;;;;;;;4.28;3.78;;;16.50;99.90;;;;;;5094816;28;20211;-74
2023/08/28 12:37:05;;;;;;;4.53;4.13;;;16.50;99.90;;;;;;5094612;28;20197;-74
2023/08/28 12:39:32;;;;;;;4.43;3.95;;;16.30;99.90;;;;;;5094438;28;20197;-73
2023/08/28 12:42:01;;;;;;;5.03;4.10;;;16.40;99.90;;;;;;5094579;28;20196;-73